Time;durP1;ratioP1;P1;durP2;ratioP2;P2;SDS_P1;SDS_P2;PMS_P1;PMS_P2;Temp;Humidity;BMP_temperature;BMP_pressure;BME280_temperature;BME280_humidity;BME280_pressure;Samples;Min_cycle;Max_cycle;Signal;HPM_P1;HPM_P2
2022/10/27 05:00:23;;;;;;;8.60;5.50;;;13.50;97.20;;;;;;1700127;29;20192;-72
2022/10/27 05:01:14;;;;;;;5.78;5.10;;;13.50;97.20;;;;;;1700306;29;20199;-72
2022/10/27 05:02:07;;;;;;;7.43;5.53;;;13.50;97.20;;;;;;1700296;29;20282;-72
2022/10/27 05:02:58;;;;;;;6.13;5.47;;;13.50;97.20;;;;;;1699832;29;21227;-72
2022/10/27 05:03:50;;;;;;;8.07;5.28;;;13.60;97.20;;;;;;1699461;29;20195;-72
2022/10/27 05:04:41;;;;;;;6.15;4.72;;;13.60;97.20;;;;;;1700109;29;20202;-72
2022/10/27 05:05:32;;;;;;;7.33;5.60;;;13.60;97.20;;;;;;1700099;29;20218;-71
2022/10/27 05:06:23;;;;;;;5.68;5.03;;;13.60;97.20;;;;;;1700046;29;20203;-72
2022/10/27 05:07:15;;;;;;;9.87;5.80;;;13.60;97.20;;;;;;1700399;29;20203;-71
2022/10/27 05:08:07;;;;;;;9.60;5.30;;;13.60;97.20;;;;;;1700257;29;20214;-71
2022/10/27 05:08:59;;;;;;;7.90;4.97;;;13.60;97.20;;;;;;1700210;29;20289;-72
2022/10/27 05:09:50;;;;;;;6.72;5.45;;;13.60;97.20;;;;;;1701033;29;20207;-72
2022/10/27 05:10:41;;;;;;;9.23;6.17;;;13.60;97.20;;;;;;1701340;29;20223;-72
2022/10/27 05:11:32;;;;;;;6.57;5.95;;;13.60;97.20;;;;;;1701659;29;20230;-72
2022/10/27 05:12:24;;;;;;;7.27;5.47;;;13.60;97.20;;;;;;1701715;29;20297;-71
2022/10/27 05:13:15;;;;;;;7.30;5.25;;;13.60;97.20;;;;;;1701147;29;20211;-72
2022/10/27 05:14:06;;;;;;;5.80;5.30;;;13.70;97.20;;;;;;1701484;29;20199;-72
2022/10/27 05:14:57;;;;;;;7.22;5.28;;;13.60;97.20;;;;;;1695918;29;20212;-74
2022/10/27 05:15:50;;;;;;;6.80;5.90;;;13.60;97.20;;;;;;1700533;29;20193;-72
2022/10/27 05:16:41;;;;;;;13.68;5.88;;;13.60;97.20;;;;;;1699573;29;20200;-72
2022/10/27 05:17:35;;;;;;;9.47;6.07;;;13.60;97.20;;;;;;1701821;29;20810;-71
2022/10/27 05:18:26;;;;;;;6.38;5.70;;;13.60;97.20;;;;;;1701198;29;20213;-71
2022/10/27 05:19:18;;;;;;;8.50;5.40;;;13.60;97.20;;;;;;1701222;29;20188;-71
2022/10/27 05:20:09;;;;;;;8.68;5.80;;;13.60;97.20;;;;;;1701360;29;20214;-71
2022/10/27 05:21:01;;;;;;;7.00;5.35;;;13.60;97.20;;;;;;1701261;29;20211;-71
2022/10/27 05:21:52;;;;;;;7.97;5.13;;;13.60;97.20;;;;;;1701125;29;20203;-70
2022/10/27 05:22:43;;;;;;;9.30;5.40;;;13.60;97.20;;;;;;1701729;29;20203;-71
2022/10/27 05:23:34;;;;;;;5.57;4.90;;;13.60;97.20;;;;;;1701659;29;20199;-71
2022/10/27 05:24:26;;;;;;;10.63;6.60;;;13.60;97.20;;;;;;1701533;29;20195;-70
2022/10/27 05:25:17;;;;;;;7.80;4.90;;;13.60;97.20;;;;;;1701320;29;20207;-71
2022/10/27 05:26:08;;;;;;;5.70;5.20;;;13.60;97.20;;;;;;1695151;29;20287;-71
2022/10/27 05:26:59;;;;;;;7.60;6.13;;;13.60;97.20;;;;;;1695266;29;20459;-71
2022/10/27 05:27:51;;;;;;;6.33;5.70;;;13.60;97.20;;;;;;1695320;29;20204;-71
2022/10/27 05:28:43;;;;;;;5.82;5.25;;;13.60;97.20;;;;;;1695234;29;20208;-70
2022/10/27 05:29:35;;;;;;;7.82;5.07;;;13.60;97.20;;;;;;1695370;29;20615;-71
2022/10/27 05:30:25;;;;;;;6.88;4.80;;;13.60;97.20;;;;;;1697469;29;20203;-71
2022/10/27 05:31:18;;;;;;;7.17;5.90;;;13.50;97.20;;;;;;1711264;28;20652;-71
2022/10/27 05:32:09;;;;;;;8.60;4.93;;;13.50;97.20;;;;;;1718604;28;20210;-73
2022/10/27 05:33:01;;;;;;;6.80;4.93;;;13.50;97.20;;;;;;1715030;28;20202;-71
2022/10/27 05:33:52;;;;;;;9.50;5.78;;;13.50;97.20;;;;;;1715153;28;20202;-71
2022/10/27 05:34:43;;;;;;;6.30;5.17;;;13.50;97.20;;;;;;1715145;28;20216;-72
2022/10/27 05:35:34;;;;;;;10.23;5.95;;;13.50;97.20;;;;;;1712989;28;20209;-72
2022/10/27 05:36:26;;;;;;;9.10;6.90;;;13.50;97.20;;;;;;1707872;28;20199;-71
2022/10/27 05:37:17;;;;;;;12.02;7.72;;;13.50;97.20;;;;;;1708126;28;20209;-72
2022/10/27 05:38:08;;;;;;;13.20;8.93;;;13.50;97.20;;;;;;1708363;28;20665;-71
2022/10/27 05:38:59;;;;;;;11.80;7.70;;;13.40;97.20;;;;;;1708296;28;20584;-72
2022/10/27 05:39:51;;;;;;;14.03;7.90;;;13.40;97.20;;;;;;1708414;28;20198;-73
2022/10/27 05:40:41;;;;;;;16.42;8.10;;;13.40;97.20;;;;;;1708212;28;20727;-73
2022/10/27 05:41:33;;;;;;;12.60;8.20;;;13.40;97.20;;;;;;1709241;28;20691;-72
2022/10/27 05:42:24;;;;;;;11.80;8.35;;;13.30;97.20;;;;;;1714926;28;20201;-72
2022/10/27 05:43:15;;;;;;;13.30;8.03;;;13.30;97.20;;;;;;1715060;28;20204;-73
2022/10/27 05:44:06;;;;;;;14.98;8.20;;;13.30;97.20;;;;;;1714911;28;20691;-73
2022/10/27 05:44:58;;;;;;;16.47;7.80;;;13.30;97.20;;;;;;1714989;28;20581;-73
2022/10/27 05:45:49;;;;;;;10.35;7.95;;;13.30;97.20;;;;;;1714714;28;20970;-72
2022/10/27 05:46:42;;;;;;;11.83;7.80;;;13.30;97.20;;;;;;1714193;28;20198;-73
2022/10/27 05:47:33;;;;;;;12.88;7.60;;;13.30;97.20;;;;;;1714841;28;20453;-73
2022/10/27 05:48:24;;;;;;;14.10;7.27;;;13.30;97.20;;;;;;1715134;28;20202;-72
2022/10/27 05:49:15;;;;;;;15.60;8.05;;;13.30;97.20;;;;;;1715097;28;20222;-72
2022/10/27 05:50:07;;;;;;;15.30;7.60;;;13.30;97.20;;;;;;1713843;28;20194;-71
2022/10/27 05:50:58;;;;;;;11.48;8.10;;;13.30;97.20;;;;;;1710735;28;20718;-70
2022/10/27 05:51:50;;;;;;;12.00;7.63;;;13.20;97.20;;;;;;1711837;28;20593;-70
2022/10/27 05:52:45;;;;;;;10.07;8.20;;;13.20;97.20;;;;;;1714755;28;20202;-70
2022/10/27 05:53:36;;;;;;;14.15;8.60;;;13.20;97.20;;;;;;1711970;28;20285;-72
2022/10/27 05:54:27;;;;;;;13.45;8.93;;;13.20;97.20;;;;;;1714848;28;20668;-71
2022/10/27 05:55:18;;;;;;;9.80;8.47;;;13.20;97.20;;;;;;1712829;28;20653;-71
2022/10/27 05:56:10;;;;;;;13.23;7.97;;;13.20;97.20;;;;;;1711140;28;20210;-71
2022/10/27 05:57:00;;;;;;;10.48;7.93;;;13.20;97.20;;;;;;1711112;28;20213;-71
2022/10/27 05:57:53;;;;;;;10.17;8.97;;;13.20;97.20;;;;;;1710616;28;20194;-70
2022/10/27 05:58:44;;;;;;;15.35;9.15;;;13.10;97.20;;;;;;1714145;28;20201;-72
2022/10/27 05:59:36;;;;;;;15.07;8.10;;;13.10;97.20;;;;;;1714824;28;20277;-71
2022/10/27 06:00:29;;;;;;;10.20;8.10;;;13.10;97.20;;;;;;1714708;28;20197;-72
2022/10/27 06:01:21;;;;;;;11.00;9.05;;;13.10;97.20;;;;;;1714626;28;20260;-71
2022/10/27 06:02:13;;;;;;;13.10;8.77;;;13.10;97.20;;;;;;1714333;28;20198;-72
2022/10/27 06:03:06;;;;;;;12.40;9.15;;;13.10;97.20;;;;;;1708820;28;20265;-72
2022/10/27 06:03:57;;;;;;;9.75;7.80;;;13.10;97.20;;;;;;1711459;28;20202;-72
2022/10/27 06:04:48;;;;;;;12.13;8.03;;;13.10;97.20;;;;;;1708634;28;20203;-72
2022/10/27 06:05:39;;;;;;;12.88;8.55;;;13.10;97.20;;;;;;1708160;28;20206;-72
2022/10/27 06:06:31;;;;;;;8.77;7.60;;;13.10;97.20;;;;;;1708520;28;20202;-73
2022/10/27 06:07:22;;;;;;;13.18;8.57;;;13.10;97.20;;;;;;1710037;28;20693;-72
2022/10/27 06:08:14;;;;;;;11.60;7.90;;;13.10;97.20;;;;;;1711264;28;20624;-72
2022/10/27 06:09:04;;;;;;;10.40;8.30;;;13.00;97.20;;;;;;1711377;28;21909;-72
2022/10/27 06:09:56;;;;;;;10.73;8.53;;;13.00;97.20;;;;;;1712415;28;20199;-73
2022/10/27 06:10:47;;;;;;;9.45;8.10;;;13.00;97.20;;;;;;1711232;28;20218;-72
2022/10/27 06:11:39;;;;;;;9.53;8.10;;;13.00;97.20;;;;;;1708122;29;20214;-72
2022/10/27 06:12:29;;;;;;;8.07;7.00;;;13.00;97.20;;;;;;1708119;29;20261;-72
2022/10/27 06:13:21;;;;;;;9.87;7.07;;;13.00;97.20;;;;;;1713415;28;20206;-72
2022/10/27 06:14:12;;;;;;;8.63;6.30;;;12.90;97.20;;;;;;1714813;28;20210;-72
2022/10/27 06:15:04;;;;;;;12.13;7.43;;;12.90;97.20;;;;;;1714156;28;20198;-72
2022/10/27 06:15:55;;;;;;;21.95;7.93;;;12.90;97.20;;;;;;1708069;29;20217;-72
2022/10/27 06:16:46;;;;;;;11.67;7.60;;;12.90;97.20;;;;;;1707348;28;20207;-72
2022/10/27 06:17:38;;;;;;;10.95;6.28;;;12.90;97.20;;;;;;1708044;29;20198;-72
2022/10/27 06:18:30;;;;;;;9.95;6.70;;;12.90;97.20;;;;;;1707993;29;20628;-72
2022/10/27 06:19:21;;;;;;;9.27;7.50;;;12.90;97.20;;;;;;1708068;29;20206;-72
2022/10/27 06:20:13;;;;;;;9.33;6.37;;;12.90;97.20;;;;;;1707593;28;20826;-72
2022/10/27 06:21:03;;;;;;;9.50;6.70;;;12.90;97.20;;;;;;1707108;29;20210;-72
2022/10/27 06:21:55;;;;;;;8.33;6.70;;;12.90;97.20;;;;;;1707843;29;20676;-72
2022/10/27 06:22:46;;;;;;;9.25;6.13;;;12.90;97.20;;;;;;1707923;28;20464;-71
2022/10/27 06:23:40;;;;;;;8.43;5.40;;;12.90;97.20;;;;;;1713935;28;20194;-71
2022/10/27 06:24:30;;;;;;;9.07;6.38;;;12.90;97.20;;;;;;1714134;28;20198;-71
2022/10/27 06:25:22;;;;;;;8.70;5.40;;;12.90;97.20;;;;;;1714175;28;20205;-71
2022/10/27 06:26:15;;;;;;;9.30;5.30;;;12.90;97.20;;;;;;1712197;28;20216;-71
2022/10/27 06:27:07;;;;;;;7.78;6.43;;;12.90;97.20;;;;;;1711437;28;20281;-70
2022/10/27 06:27:58;;;;;;;7.65;5.82;;;12.90;97.20;;;;;;1711937;28;20198;-71
2022/10/27 06:28:50;;;;;;;7.17;5.47;;;12.90;97.20;;;;;;1714022;28;20205;-71
2022/10/27 06:29:41;;;;;;;6.25;5.50;;;12.90;97.20;;;;;;1713764;28;20477;-71
2022/10/27 06:30:32;;;;;;;6.97;5.30;;;12.90;97.20;;;;;;1711807;28;20248;-71
2022/10/27 06:31:23;;;;;;;7.30;6.63;;;12.90;97.20;;;;;;1707347;28;20704;-71
2022/10/27 06:32:15;;;;;;;9.30;6.30;;;12.90;97.20;;;;;;1707562;28;20652;-71
2022/10/27 06:33:07;;;;;;;9.80;6.20;;;12.90;97.20;;;;;;1706304;28;20207;-70
2022/10/27 06:33:59;;;;;;;7.35;6.35;;;12.90;97.20;;;;;;1707607;29;20293;-70
2022/10/27 06:34:50;;;;;;;9.45;6.43;;;12.90;97.20;;;;;;1707326;29;20653;-71
2022/10/27 06:35:41;;;;;;;5.67;5.13;;;12.90;97.20;;;;;;1707573;29;20671;-70
2022/10/27 06:36:32;;;;;;;7.80;5.30;;;12.90;97.20;;;;;;1706975;29;20203;-71
2022/10/27 06:37:24;;;;;;;7.13;5.97;;;12.90;97.20;;;;;;1706747;29;20203;-71
2022/10/27 06:38:15;;;;;;;6.97;5.43;;;12.90;97.20;;;;;;1707330;29;20281;-71
2022/10/27 06:39:07;;;;;;;7.20;5.57;;;13.00;97.20;;;;;;1707452;29;20206;-70
2022/10/27 06:39:58;;;;;;;6.57;5.70;;;13.00;97.20;;;;;;1707680;29;20677;-71
2022/10/27 06:40:49;;;;;;;8.00;5.57;;;13.00;97.20;;;;;;1707956;29;20724;-71
2022/10/27 06:41:40;;;;;;;6.38;5.13;;;13.00;97.20;;;;;;1707620;29;20591;-71
2022/10/27 06:42:34;;;;;;;7.63;6.20;;;13.00;97.20;;;;;;1707307;29;20732;-72
2022/10/27 06:43:25;;;;;;;9.85;5.90;;;13.00;97.20;;;;;;1707336;29;20202;-72
2022/10/27 06:44:16;;;;;;;5.87;5.10;;;13.00;97.20;;;;;;1707741;29;20203;-72
2022/10/27 06:45:08;;;;;;;8.20;5.80;;;13.00;97.20;;;;;;1707785;29;20203;-72
2022/10/27 06:46:00;;;;;;;9.02;5.95;;;13.00;97.20;;;;;;1707834;28;20198;-72
2022/10/27 06:46:51;;;;;;;11.10;6.22;;;13.00;97.20;;;;;;1707194;29;20739;-72
2022/10/27 06:47:43;;;;;;;8.67;6.67;;;13.00;97.20;;;;;;1707691;29;20590;-72
2022/10/27 06:48:35;;;;;;;13.52;7.50;;;13.00;97.20;;;;;;1707802;29;20457;-72
2022/10/27 06:49:26;;;;;;;9.85;6.72;;;13.10;97.20;;;;;;1707814;29;20207;-71
2022/10/27 06:50:17;;;;;;;13.15;8.20;;;13.10;97.20;;;;;;1707738;29;20238;-72
2022/10/27 06:51:09;;;;;;;6.87;6.17;;;13.10;97.20;;;;;;1707831;29;20198;-71
2022/10/27 06:51:59;;;;;;;6.88;6.15;;;13.10;97.20;;;;;;1707856;29;20203;-72
2022/10/27 06:52:51;;;;;;;8.20;6.70;;;13.10;97.20;;;;;;1707891;28;20203;-72
2022/10/27 06:53:42;;;;;;;7.20;6.00;;;13.10;97.20;;;;;;1707777;29;20708;-71
2022/10/27 06:54:33;;;;;;;8.67;5.80;;;13.10;97.20;;;;;;1707824;29;20587;-71
2022/10/27 06:55:24;;;;;;;12.20;6.70;;;13.10;97.20;;;;;;1707888;29;20213;-72
2022/10/27 06:56:17;;;;;;;9.27;7.27;;;13.20;97.20;;;;;;1706997;29;20199;-72
2022/10/27 06:57:08;;;;;;;8.60;6.13;;;13.20;97.20;;;;;;1701034;29;20207;-72
2022/10/27 06:58:00;;;;;;;8.70;6.10;;;13.20;97.20;;;;;;1701157;29;20274;-72
2022/10/27 06:58:51;;;;;;;9.27;6.10;;;13.30;97.20;;;;;;1701279;29;20528;-71
2022/10/27 06:59:42;;;;;;;7.77;6.97;;;13.30;97.20;;;;;;1701253;29;20328;-72
2022/10/27 07:00:33;;;;;;;8.05;5.80;;;13.30;97.20;;;;;;1701418;29;20223;-72
2022/10/27 07:01:25;;;;;;;7.63;6.77;;;13.30;97.20;;;;;;1701197;29;20199;-71
2022/10/27 07:02:16;;;;;;;7.65;6.20;;;13.40;97.20;;;;;;1701246;29;20203;-72
2022/10/27 07:03:08;;;;;;;8.50;6.43;;;13.40;97.20;;;;;;1701164;29;20203;-71
2022/10/27 07:04:01;;;;;;;10.45;6.63;;;13.40;97.20;;;;;;1701144;29;20211;-72
2022/10/27 07:04:52;;;;;;;8.93;5.72;;;13.50;97.20;;;;;;1701380;29;20203;-72
2022/10/27 07:05:43;;;;;;;9.43;6.53;;;13.50;97.20;;;;;;1701141;29;20203;-71
2022/10/27 07:06:35;;;;;;;9.47;7.40;;;13.50;97.20;;;;;;1700605;29;20213;-72
2022/10/27 07:07:25;;;;;;;12.38;6.43;;;13.50;97.20;;;;;;1700975;29;20210;-72
2022/10/27 07:08:17;;;;;;;10.23;6.77;;;13.60;97.20;;;;;;1701175;29;20684;-72
2022/10/27 07:09:08;;;;;;;9.80;6.68;;;13.60;97.20;;;;;;1701232;29;20203;-72
2022/10/27 07:10:00;;;;;;;9.40;6.20;;;13.70;97.20;;;;;;1701041;29;20229;-72
2022/10/27 07:10:51;;;;;;;12.35;7.15;;;13.70;97.20;;;;;;1701077;29;20485;-72
2022/10/27 07:11:42;;;;;;;11.20;6.40;;;13.70;97.20;;;;;;1701134;29;20676;-72
2022/10/27 07:12:33;;;;;;;12.77;6.90;;;13.70;97.20;;;;;;1701200;29;20215;-71
2022/10/27 07:13:25;;;;;;;9.90;7.43;;;13.80;97.20;;;;;;1703812;29;20201;-72
2022/10/27 07:14:16;;;;;;;8.95;7.07;;;13.80;97.20;;;;;;1707690;29;20210;-71
2022/10/27 07:15:08;;;;;;;8.87;5.73;;;13.80;97.20;;;;;;1707773;29;20209;-71
2022/10/27 07:15:59;;;;;;;6.57;5.65;;;13.90;97.20;;;;;;1707756;29;20202;-71
2022/10/27 07:16:50;;;;;;;6.10;5.10;;;13.90;97.20;;;;;;1707100;29;20803;-72
2022/10/27 07:17:41;;;;;;;10.73;6.10;;;13.90;97.20;;;;;;1707548;29;20203;-71
2022/10/27 07:18:33;;;;;;;7.93;6.03;;;14.00;97.20;;;;;;1707783;28;20191;-72
2022/10/27 07:19:25;;;;;;;10.85;5.88;;;14.00;97.20;;;;;;1707717;28;20585;-72
2022/10/27 07:20:17;;;;;;;8.45;5.50;;;14.00;97.20;;;;;;1707670;29;20665;-72
2022/10/27 07:21:08;;;;;;;9.85;5.60;;;14.10;97.20;;;;;;1707635;29;20202;-72
2022/10/27 07:21:59;;;;;;;13.50;5.70;;;14.10;97.20;;;;;;1707565;29;20217;-72
2022/10/27 07:22:51;;;;;;;8.27;5.83;;;14.10;97.20;;;;;;1707663;29;20194;-72
2022/10/27 07:23:42;;;;;;;8.38;5.90;;;14.20;97.20;;;;;;1707649;29;20700;-72
2022/10/27 07:24:33;;;;;;;9.77;5.17;;;14.20;97.20;;;;;;1707722;29;20567;-72
2022/10/27 07:25:24;;;;;;;7.13;5.05;;;14.30;97.20;;;;;;1707650;29;20202;-72
2022/10/27 07:26:16;;;;;;;5.80;4.90;;;14.30;97.20;;;;;;1707047;29;20210;-72
2022/10/27 07:27:07;;;;;;;9.10;5.50;;;14.30;97.20;;;;;;1707419;29;20692;-72
2022/10/27 07:28:00;;;;;;;9.67;6.13;;;14.40;97.20;;;;;;1707478;28;20691;-71
2022/10/27 07:28:51;;;;;;;11.55;5.72;;;14.40;97.20;;;;;;1707653;29;20229;-72
2022/10/27 07:29:43;;;;;;;8.13;5.33;;;14.50;97.20;;;;;;1707184;29;20207;-72
2022/10/27 07:30:36;;;;;;;7.70;5.45;;;14.50;97.20;;;;;;1707526;29;21078;-71
2022/10/27 07:31:28;;;;;;;8.85;5.88;;;14.50;97.20;;;;;;1707603;29;20340;-71
2022/10/27 07:32:18;;;;;;;9.50;5.78;;;14.60;97.20;;;;;;1706852;28;20214;-72
2022/10/27 07:33:10;;;;;;;8.70;5.70;;;14.60;97.20;;;;;;1707570;29;20203;-72
2022/10/27 07:34:01;;;;;;;7.38;6.13;;;14.70;97.20;;;;;;1707541;29;20244;-72
2022/10/27 07:34:54;;;;;;;10.23;6.37;;;14.70;97.20;;;;;;1707679;28;20213;-72
2022/10/27 07:35:48;;;;;;;12.93;5.70;;;14.80;97.20;;;;;;1707521;29;20202;-72
2022/10/27 07:36:39;;;;;;;7.70;5.43;;;14.90;97.20;;;;;;1706868;28;20701;-72
2022/10/27 07:37:30;;;;;;;8.43;5.50;;;14.90;97.20;;;;;;1707533;29;20230;-72
2022/10/27 07:38:22;;;;;;;6.17;4.63;;;15.00;97.20;;;;;;1707600;29;20221;-72
2022/10/27 07:39:12;;;;;;;8.43;6.00;;;15.00;97.20;;;;;;1707574;29;20210;-72
2022/10/27 07:40:05;;;;;;;6.23;4.83;;;15.10;97.20;;;;;;1707471;29;20194;-72
2022/10/27 07:40:56;;;;;;;10.73;5.63;;;15.10;97.20;;;;;;1707469;29;20708;-71
2022/10/27 07:41:47;;;;;;;6.17;5.03;;;15.20;97.20;;;;;;1707664;29;20571;-72
2022/10/27 07:42:43;;;;;;;12.18;5.57;;;15.20;97.20;;;;;;1707514;29;20202;-72
2022/10/27 07:43:35;;;;;;;6.40;4.72;;;15.30;97.20;;;;;;1707525;29;20233;-72
2022/10/27 07:44:26;;;;;;;11.05;5.78;;;15.30;97.20;;;;;;1707489;29;20214;-72
2022/10/27 07:45:19;;;;;;;7.10;5.40;;;15.40;97.20;;;;;;1707530;29;20225;-72
2022/10/27 07:46:10;;;;;;;7.82;4.75;;;15.50;97.20;;;;;;1706979;29;20669;-72
2022/10/27 07:47:02;;;;;;;5.73;5.23;;;15.50;97.20;;;;;;1706870;29;20661;-72
2022/10/27 07:47:54;;;;;;;8.85;4.93;;;15.60;97.20;;;;;;1707423;29;20719;-72
2022/10/27 07:48:46;;;;;;;10.07;5.38;;;15.60;97.20;;;;;;1707466;29;20206;-72
2022/10/27 07:49:37;;;;;;;7.25;5.55;;;15.70;97.20;;;;;;1707402;29;20213;-72
2022/10/27 07:50:32;;;;;;;7.27;5.80;;;15.70;97.20;;;;;;1707481;29;20220;-72
2022/10/27 07:51:23;;;;;;;9.18;5.13;;;15.80;97.20;;;;;;1707502;29;20290;-72
2022/10/27 07:52:15;;;;;;;12.17;5.97;;;15.80;97.20;;;;;;1707575;29;20266;-72
2022/10/27 07:53:06;;;;;;;6.53;5.93;;;15.90;97.20;;;;;;1707440;29;20579;-72
2022/10/27 07:53:57;;;;;;;11.00;5.70;;;15.90;97.20;;;;;;1707500;29;20206;-72
2022/10/27 07:54:48;;;;;;;12.68;5.95;;;16.00;97.20;;;;;;1707490;29;20453;-72
2022/10/27 07:55:40;;;;;;;7.57;5.30;;;16.00;97.20;;;;;;1707447;29;20209;-72
2022/10/27 07:56:31;;;;;;;7.13;5.53;;;16.10;97.20;;;;;;1706968;29;20221;-72
2022/10/27 07:57:23;;;;;;;6.70;5.70;;;16.10;97.20;;;;;;1707224;29;20206;-72
2022/10/27 07:58:16;;;;;;;7.22;5.05;;;16.20;97.20;;;;;;1707303;29;20210;-72
2022/10/27 07:59:07;;;;;;;7.80;5.70;;;16.20;97.20;;;;;;1707432;29;20206;-72
2022/10/27 07:59:59;;;;;;;10.07;5.77;;;16.30;97.20;;;;;;1707592;29;20217;-72
2022/10/27 08:00:49;;;;;;;7.07;5.50;;;16.30;97.20;;;;;;1706897;29;20226;-72
2022/10/27 08:01:41;;;;;;;11.63;5.30;;;16.30;97.20;;;;;;1707367;29;20203;-72
2022/10/27 08:02:32;;;;;;;8.20;5.53;;;16.40;97.20;;;;;;1707403;29;20211;-72
2022/10/27 08:03:25;;;;;;;6.53;5.53;;;16.50;97.20;;;;;;1707332;29;20198;-72
2022/10/27 08:04:16;;;;;;;9.68;6.18;;;16.50;97.20;;;;;;1707619;29;20198;-72
2022/10/27 08:05:08;;;;;;;7.53;6.00;;;16.50;97.20;;;;;;1707429;29;20206;-71
2022/10/27 08:06:02;;;;;;;6.80;5.80;;;16.60;97.20;;;;;;1707359;29;20585;-72
2022/10/27 08:06:53;;;;;;;11.05;5.88;;;16.60;97.20;;;;;;1706707;29;20673;-72
2022/10/27 08:07:45;;;;;;;6.10;5.50;;;16.70;97.20;;;;;;1707416;29;20637;-72
2022/10/27 08:08:36;;;;;;;7.80;5.60;;;16.70;97.20;;;;;;1707374;29;20210;-72
2022/10/27 08:09:27;;;;;;;7.07;5.70;;;16.80;97.20;;;;;;1707396;29;20206;-72
2022/10/27 08:10:18;;;;;;;9.60;6.18;;;16.80;97.20;;;;;;1707209;29;20233;-73
2022/10/27 08:11:10;;;;;;;11.00;6.03;;;16.90;97.20;;;;;;1707415;29;20213;-72
2022/10/27 08:12:00;;;;;;;8.90;6.32;;;16.90;97.20;;;;;;1707355;29;20217;-72
2022/10/27 08:12:52;;;;;;;9.27;6.27;;;17.00;97.20;;;;;;1707488;29;20208;-72
2022/10/27 08:13:43;;;;;;;10.82;5.90;;;17.00;97.20;;;;;;1707323;29;20199;-71
2022/10/27 08:14:35;;;;;;;9.43;8.17;;;17.10;97.20;;;;;;1707427;29;20213;-72
2022/10/27 08:15:26;;;;;;;10.73;8.00;;;17.20;97.20;;;;;;1706989;29;20213;-72
2022/10/27 08:16:18;;;;;;;11.00;7.90;;;17.20;97.20;;;;;;1706753;29;20199;-73
2022/10/27 08:17:09;;;;;;;7.75;5.90;;;17.30;97.20;;;;;;1706772;29;20691;-72
2022/10/27 08:18:02;;;;;;;8.80;5.80;;;17.40;97.20;;;;;;1707316;29;20595;-72
2022/10/27 08:18:53;;;;;;;5.40;4.90;;;17.40;97.20;;;;;;1707404;29;20213;-72
2022/10/27 08:19:45;;;;;;;7.43;4.90;;;17.40;97.20;;;;;;1707282;29;20213;-72
2022/10/27 08:20:38;;;;;;;6.57;4.80;;;17.50;97.20;;;;;;1707310;29;20223;-72
2022/10/27 08:21:32;;;;;;;7.15;5.78;;;17.50;97.20;;;;;;1707344;29;20286;-72
2022/10/27 08:22:23;;;;;;;10.35;5.30;;;17.60;97.20;;;;;;1707259;29;20210;-72
2022/10/27 08:23:16;;;;;;;11.93;4.50;;;17.60;97.20;;;;;;1707391;29;20206;-72
2022/10/27 08:24:07;;;;;;;7.88;4.65;;;17.60;97.20;;;;;;1707268;29;20202;-72
2022/10/27 08:24:59;;;;;;;6.60;4.37;;;17.60;97.20;;;;;;1707356;29;20213;-72
2022/10/27 08:25:51;;;;;;;8.25;4.88;;;17.60;97.20;;;;;;1707301;29;20453;-72
2022/10/27 08:26:42;;;;;;;8.52;5.35;;;17.60;97.20;;;;;;1706578;29;20206;-72
2022/10/27 08:27:33;;;;;;;6.57;4.45;;;17.60;97.20;;;;;;1707220;29;20203;-72
2022/10/27 08:28:25;;;;;;;4.70;4.30;;;17.70;97.20;;;;;;1707251;29;20198;-72
2022/10/27 08:29:16;;;;;;;11.93;5.10;;;17.70;97.20;;;;;;1707244;29;20214;-72
2022/10/27 08:30:09;;;;;;;5.87;4.80;;;17.70;97.20;;;;;;1707173;29;20736;-72
2022/10/27 08:31:00;;;;;;;7.43;4.65;;;17.70;97.20;;;;;;1707020;29;20621;-72
2022/10/27 08:31:52;;;;;;;8.10;4.83;;;17.80;97.20;;;;;;1707030;29;20344;-72
2022/10/27 08:32:43;;;;;;;9.05;5.15;;;17.80;97.20;;;;;;1707277;29;20215;-72
2022/10/27 08:33:35;;;;;;;12.47;4.87;;;17.90;97.20;;;;;;1707334;29;20617;-72
2022/10/27 08:34:25;;;;;;;9.93;4.07;;;18.00;97.20;;;;;;1707195;29;20364;-72
2022/10/27 08:35:17;;;;;;;8.47;4.23;;;18.00;97.20;;;;;;1707199;29;20273;-72
2022/10/27 08:36:10;;;;;;;6.15;4.47;;;18.10;97.20;;;;;;1706699;29;20202;-72
2022/10/27 08:37:03;;;;;;;5.30;4.35;;;18.20;97.20;;;;;;1706998;29;20210;-72
2022/10/27 08:37:58;;;;;;;5.32;4.38;;;18.20;97.20;;;;;;1707133;29;20605;-71
2022/10/27 08:38:50;;;;;;;5.72;4.28;;;18.20;97.20;;;;;;1706908;29;20206;-72
2022/10/27 08:39:41;;;;;;;9.88;4.15;;;18.30;97.20;;;;;;1707199;29;20209;-72
2022/10/27 08:40:40;;;;;;;7.40;5.00;;;18.30;97.20;;;;;;1707267;29;20228;-72
2022/10/27 08:41:40;;;;;;;6.70;4.05;;;18.30;97.20;;;;;;1707277;29;20665;-72
2022/10/27 08:42:39;;;;;;;6.40;4.20;;;18.40;97.20;;;;;;1707302;29;20214;-72
2022/10/27 08:43:43;;;;;;;8.60;4.80;;;18.40;97.20;;;;;;1707170;28;20199;-72
2022/10/27 08:44:39;;;;;;;5.70;3.90;;;18.40;97.20;;;;;;1707290;29;20206;-71
2022/10/27 08:45:34;;;;;;;5.78;4.53;;;18.40;97.20;;;;;;1707213;29;20213;-72
2022/10/27 08:46:34;;;;;;;7.55;4.25;;;18.50;97.20;;;;;;1706668;29;20277;-72
2022/10/27 08:47:25;;;;;;;9.20;3.92;;;18.50;97.20;;;;;;1707014;29;20207;-71
2022/10/27 08:48:26;;;;;;;9.15;4.35;;;18.60;97.20;;;;;;1707040;29;20194;-72
2022/10/27 08:49:33;;;;;;;7.07;4.68;;;18.70;97.20;;;;;;1700700;29;20218;-72
2022/10/27 08:50:26;;;;;;;5.35;4.00;;;18.80;97.20;;;;;;1700447;29;20227;-72
2022/10/27 08:51:22;;;;;;;8.40;4.85;;;18.90;97.20;;;;;;1700602;29;20241;-72
2022/10/27 08:52:21;;;;;;;7.95;4.38;;;18.90;97.20;;;;;;1700681;29;20583;-72
2022/10/27 08:53:18;;;;;;;8.85;4.50;;;19.00;97.20;;;;;;1700695;29;20207;-71
2022/10/27 08:54:11;;;;;;;9.50;4.50;;;19.00;97.20;;;;;;1700644;29;20211;-72
2022/10/27 08:55:14;;;;;;;17.73;5.25;;;19.10;97.20;;;;;;1700555;29;20203;-71
2022/10/27 08:56:09;;;;;;;8.00;4.90;;;19.20;97.20;;;;;;1700556;29;20246;-72
2022/10/27 08:57:02;;;;;;;6.65;4.20;;;19.30;97.20;;;;;;1700519;29;20203;-72
2022/10/27 08:58:01;;;;;;;10.75;4.25;;;19.40;97.20;;;;;;1700456;29;20254;-71
2022/10/27 08:58:52;;;;;;;8.20;4.45;;;19.40;97.20;;;;;;1700657;29;20207;-72
2022/10/27 08:59:43;;;;;;;8.07;4.27;;;19.50;97.20;;;;;;1700526;29;20217;-72
2022/10/27 09:00:46;;;;;;;7.70;4.10;;;19.60;97.20;;;;;;1700540;29;20222;-72
2022/10/27 09:01:44;;;;;;;7.72;4.20;;;19.70;97.20;;;;;;1700622;29;20732;-72
2022/10/27 09:02:58;;;;;;;6.35;4.28;;;19.70;97.20;;;;;;1700724;29;20215;-72
2022/10/27 09:04:15;;;;;;;6.90;4.35;;;19.80;97.20;;;;;;1700618;29;20334;-72
2022/10/27 09:05:15;;;;;;;7.10;3.45;;;19.80;97.20;;;;;;1698640;29;20211;-72
2022/10/27 09:06:15;;;;;;;7.55;3.90;;;19.90;97.20;;;;;;1700586;29;20640;-72
2022/10/27 09:07:18;;;;;;;6.55;3.88;;;19.90;97.20;;;;;;1700335;29;20215;-72
2022/10/27 09:08:19;;;;;;;8.35;3.97;;;19.90;97.20;;;;;;1700513;29;20588;-72
2022/10/27 09:09:18;;;;;;;8.32;4.30;;;20.00;97.20;;;;;;1700539;29;20243;-72
2022/10/27 09:10:35;;;;;;;7.65;4.05;;;20.00;97.20;;;;;;1700519;29;20207;-72
2022/10/27 09:11:38;;;;;;;10.35;3.63;;;20.00;97.20;;;;;;1700560;29;20207;-72
2022/10/27 09:12:56;;;;;;;8.52;4.55;;;20.10;97.20;;;;;;1700511;29;20286;-72
2022/10/27 09:14:09;;;;;;;7.65;4.00;;;20.10;97.20;;;;;;1700490;29;20215;-72
2022/10/27 09:15:31;;;;;;;6.65;4.07;;;20.10;97.20;;;;;;1700458;29;20229;-72
2022/10/27 09:16:33;;;;;;;11.25;3.88;;;20.10;97.20;;;;;;1699951;29;20207;-73
2022/10/27 09:17:28;;;;;;;5.45;3.58;;;20.20;97.20;;;;;;1700318;29;20203;-72
2022/10/27 09:18:27;;;;;;;5.75;3.70;;;20.20;97.20;;;;;;1700551;29;20206;-72
2022/10/27 09:19:23;;;;;;;7.45;3.35;;;20.30;97.20;;;;;;1700519;29;20207;-72
2022/10/27 09:20:22;;;;;;;13.05;4.20;;;20.30;97.20;;;;;;1700476;29;20234;-72
2022/10/27 09:21:16;;;;;;;10.15;3.42;;;20.40;97.20;;;;;;1700540;29;20583;-72
2022/10/27 09:22:15;;;;;;;4.85;4.03;;;20.50;97.20;;;;;;1701872;29;20226;-72
2022/10/27 09:23:16;;;;;;;7.07;3.75;;;20.50;97.20;;;;;;1700492;29;20235;-72
2022/10/27 09:24:11;;;;;;;5.85;3.15;;;20.60;97.20;;;;;;1700480;29;20211;-73
2022/10/27 09:25:06;;;;;;;6.80;3.95;;;20.60;97.20;;;;;;1700458;29;20200;-72
2022/10/27 09:25:58;;;;;;;9.02;3.90;;;20.70;97.20;;;;;;1700475;29;20207;-72
2022/10/27 09:26:49;;;;;;;6.70;3.78;;;20.70;97.20;;;;;;1699714;29;20203;-72
2022/10/27 09:27:42;;;;;;;5.32;3.53;;;20.80;97.20;;;;;;1700384;29;20623;-72
2022/10/27 09:28:37;;;;;;;7.15;4.30;;;20.80;97.20;;;;;;1700533;29;20576;-72
2022/10/27 09:29:34;;;;;;;7.45;3.30;;;20.90;97.20;;;;;;1700508;29;20203;-72
2022/10/27 09:30:31;;;;;;;6.22;3.80;;;21.00;97.20;;;;;;1700252;29;20211;-71
2022/10/27 09:31:29;;;;;;;5.20;3.60;;;21.10;97.20;;;;;;1700484;29;20207;-72
2022/10/27 09:32:23;;;;;;;9.20;4.32;;;21.30;97.20;;;;;;1700440;29;20208;-72
2022/10/27 09:33:19;;;;;;;8.18;4.10;;;21.40;97.20;;;;;;1700609;29;20203;-72
2022/10/27 09:34:17;;;;;;;8.30;4.00;;;21.50;97.20;;;;;;1700649;29;20290;-72